sensor_id;sensor_type;location;lat;lon;timestamp;P1;durP1;ratioP1;P2;durP2;ratioP2
41943;SDS011;27636;52.610;13.244;2024-03-07T00:01:18;40.53;;;15.23;;
41943;SDS011;27636;52.610;13.244;2024-03-07T00:06:26;63.35;;;16.85;;
41943;SDS011;27636;52.610;13.244;2024-03-07T00:11:31;70.15;;;18.33;;
41943;SDS011;27636;52.610;13.244;2024-03-07T00:16:34;51.80;;;16.35;;
41943;SDS011;27636;52.610;13.244;2024-03-07T00:21:39;58.95;;;16.65;;
41943;SDS011;27636;52.610;13.244;2024-03-07T00:26:43;66.80;;;16.77;;
41943;SDS011;27636;52.610;13.244;2024-03-07T00:31:47;54.20;;;15.18;;
41943;SDS011;27636;52.610;13.244;2024-03-07T00:36:52;60.63;;;19.25;;
41943;SDS011;27636;52.610;13.244;2024-03-07T00:41:56;65.03;;;16.17;;
41943;SDS011;27636;52.610;13.244;2024-03-07T00:47:00;59.45;;;17.08;;
41943;SDS011;27636;52.610;13.244;2024-03-07T00:57:11;47.25;;;14.55;;
41943;SDS011;27636;52.610;13.244;2024-03-07T01:02:15;59.05;;;17.38;;
41943;SDS011;27636;52.610;13.244;2024-03-07T01:07:22;66.93;;;18.38;;
41943;SDS011;27636;52.610;13.244;2024-03-07T01:12:27;43.78;;;14.98;;
41943;SDS011;27636;52.610;13.244;2024-03-07T01:17:37;51.25;;;17.25;;
41943;SDS011;27636;52.610;13.244;2024-03-07T01:22:42;46.45;;;18.20;;
41943;SDS011;27636;52.610;13.244;2024-03-07T01:27:46;69.47;;;16.88;;
41943;SDS011;27636;52.610;13.244;2024-03-07T01:32:50;48.40;;;18.25;;
41943;SDS011;27636;52.610;13.244;2024-03-07T01:37:55;56.88;;;17.30;;
41943;SDS011;27636;52.610;13.244;2024-03-07T01:43:00;70.57;;;20.45;;
41943;SDS011;27636;52.610;13.244;2024-03-07T01:48:05;59.58;;;19.27;;
41943;SDS011;27636;52.610;13.244;2024-03-07T01:53:13;45.83;;;15.57;;
41943;SDS011;27636;52.610;13.244;2024-03-07T01:58:18;42.90;;;17.27;;
41943;SDS011;27636;52.610;13.244;2024-03-07T02:03:23;62.83;;;17.20;;
41943;SDS011;27636;52.610;13.244;2024-03-07T02:08:30;70.22;;;23.23;;
41943;SDS011;27636;52.610;13.244;2024-03-07T02:13:35;71.38;;;20.63;;
41943;SDS011;27636;52.610;13.244;2024-03-07T02:18:39;55.78;;;18.55;;
41943;SDS011;27636;52.610;13.244;2024-03-07T02:23:44;52.90;;;16.80;;
41943;SDS011;27636;52.610;13.244;2024-03-07T02:28:49;44.33;;;16.65;;
41943;SDS011;27636;52.610;13.244;2024-03-07T02:33:55;49.10;;;18.80;;
41943;SDS011;27636;52.610;13.244;2024-03-07T02:44:05;59.17;;;19.25;;
41943;SDS011;27636;52.610;13.244;2024-03-07T02:49:09;65.30;;;21.45;;
41943;SDS011;27636;52.610;13.244;2024-03-07T02:54:14;58.08;;;18.02;;
41943;SDS011;27636;52.610;13.244;2024-03-07T02:59:20;48.35;;;18.50;;
41943;SDS011;27636;52.610;13.244;2024-03-07T03:04:24;54.33;;;19.92;;
41943;SDS011;27636;52.610;13.244;2024-03-07T03:09:32;52.03;;;17.60;;
41943;SDS011;27636;52.610;13.244;2024-03-07T03:14:36;58.72;;;20.08;;
41943;SDS011;27636;52.610;13.244;2024-03-07T03:19:41;57.07;;;18.70;;
41943;SDS011;27636;52.610;13.244;2024-03-07T03:24:46;61.28;;;21.90;;
41943;SDS011;27636;52.610;13.244;2024-03-07T03:34:54;53.80;;;20.13;;
41943;SDS011;27636;52.610;13.244;2024-03-07T03:40:02;57.83;;;18.08;;
41943;SDS011;27636;52.610;13.244;2024-03-07T03:45:08;50.70;;;20.08;;
41943;SDS011;27636;52.610;13.244;2024-03-07T03:50:18;48.42;;;18.23;;
41943;SDS011;27636;52.610;13.244;2024-03-07T03:55:24;59.13;;;21.55;;
41943;SDS011;27636;52.610;13.244;2024-03-07T04:00:28;43.38;;;17.42;;
41943;SDS011;27636;52.610;13.244;2024-03-07T04:05:32;48.20;;;18.95;;
41943;SDS011;27636;52.610;13.244;2024-03-07T04:10:37;48.03;;;20.10;;
41943;SDS011;27636;52.610;13.244;2024-03-07T04:16:02;49.35;;;18.42;;
41943;SDS011;27636;52.610;13.244;2024-03-07T04:21:06;45.53;;;17.37;;
41943;SDS011;27636;52.610;13.244;2024-03-07T04:26:16;44.30;;;16.42;;
41943;SDS011;27636;52.610;13.244;2024-03-07T04:31:21;48.40;;;17.00;;
41943;SDS011;27636;52.610;13.244;2024-03-07T04:36:25;53.22;;;18.75;;
41943;SDS011;27636;52.610;13.244;2024-03-07T04:41:30;54.15;;;17.92;;
41943;SDS011;27636;52.610;13.244;2024-03-07T04:46:34;45.10;;;19.30;;
41943;SDS011;27636;52.610;13.244;2024-03-07T04:51:39;48.47;;;18.90;;
41943;SDS011;27636;52.610;13.244;2024-03-07T04:56:46;46.53;;;17.13;;
41943;SDS011;27636;52.610;13.244;2024-03-07T05:01:51;45.90;;;17.17;;
41943;SDS011;27636;52.610;13.244;2024-03-07T05:06:55;45.50;;;18.60;;
41943;SDS011;27636;52.610;13.244;2024-03-07T05:12:03;45.25;;;16.60;;
41943;SDS011;27636;52.610;13.244;2024-03-07T05:17:07;42.25;;;16.23;;
41943;SDS011;27636;52.610;13.244;2024-03-07T05:22:13;44.30;;;15.82;;
41943;SDS011;27636;52.610;13.244;2024-03-07T05:27:20;40.15;;;18.40;;
41943;SDS011;27636;52.610;13.244;2024-03-07T05:42:35;45.33;;;15.27;;
41943;SDS011;27636;52.610;13.244;2024-03-07T05:47:38;39.45;;;16.02;;
41943;SDS011;27636;52.610;13.244;2024-03-07T05:52:42;43.17;;;17.40;;
41943;SDS011;27636;52.610;13.244;2024-03-07T05:57:51;48.08;;;16.65;;
41943;SDS011;27636;52.610;13.244;2024-03-07T06:02:55;32.22;;;13.88;;
41943;SDS011;27636;52.610;13.244;2024-03-07T06:07:59;37.35;;;14.98;;
41943;SDS011;27636;52.610;13.244;2024-03-07T06:13:05;33.65;;;13.77;;
41943;SDS011;27636;52.610;13.244;2024-03-07T06:18:13;43.88;;;15.05;;
41943;SDS011;27636;52.610;13.244;2024-03-07T06:23:17;38.38;;;15.07;;
41943;SDS011;27636;52.610;13.244;2024-03-07T06:28:23;54.20;;;18.85;;
41943;SDS011;27636;52.610;13.244;2024-03-07T06:33:27;35.42;;;13.07;;
41943;SDS011;27636;52.610;13.244;2024-03-07T06:38:31;41.08;;;16.67;;
41943;SDS011;27636;52.610;13.244;2024-03-07T06:43:37;35.70;;;16.83;;
41943;SDS011;27636;52.610;13.244;2024-03-07T06:48:42;46.20;;;16.27;;
41943;SDS011;27636;52.610;13.244;2024-03-07T06:53:45;53.80;;;17.70;;
41943;SDS011;27636;52.610;13.244;2024-03-07T06:58:55;36.72;;;15.88;;
41943;SDS011;27636;52.610;13.244;2024-03-07T07:09:06;42.88;;;14.75;;
41943;SDS011;27636;52.610;13.244;2024-03-07T07:14:13;43.00;;;15.00;;
41943;SDS011;27636;52.610;13.244;2024-03-07T07:19:17;35.67;;;14.63;;
41943;SDS011;27636;52.610;13.244;2024-03-07T07:24:20;30.75;;;15.63;;
41943;SDS011;27636;52.610;13.244;2024-03-07T07:29:29;41.75;;;14.38;;
41943;SDS011;27636;52.610;13.244;2024-03-07T07:34:34;32.92;;;13.32;;
41943;SDS011;27636;52.610;13.244;2024-03-07T07:39:38;37.10;;;12.82;;
41943;SDS011;27636;52.610;13.244;2024-03-07T07:44:43;29.65;;;12.82;;
41943;SDS011;27636;52.610;13.244;2024-03-07T07:49:47;26.00;;;11.75;;
41943;SDS011;27636;52.610;13.244;2024-03-07T07:54:51;33.70;;;12.00;;
41943;SDS011;27636;52.610;13.244;2024-03-07T07:59:58;26.73;;;11.00;;
41943;SDS011;27636;52.610;13.244;2024-03-07T08:05:02;30.88;;;10.88;;
41943;SDS011;27636;52.610;13.244;2024-03-07T08:10:12;24.52;;;10.32;;
41943;SDS011;27636;52.610;13.244;2024-03-07T08:15:18;24.65;;;9.55;;
41943;SDS011;27636;52.610;13.244;2024-03-07T08:20:23;21.45;;;9.02;;
41943;SDS011;27636;52.610;13.244;2024-03-07T08:25:29;24.60;;;10.70;;
41943;SDS011;27636;52.610;13.244;2024-03-07T08:30:37;23.10;;;8.77;;
41943;SDS011;27636;52.610;13.244;2024-03-07T08:35:41;17.15;;;8.43;;
41943;SDS011;27636;52.610;13.244;2024-03-07T08:40:45;15.52;;;7.35;;
41943;SDS011;27636;52.610;13.244;2024-03-07T08:45:50;19.58;;;8.05;;
41943;SDS011;27636;52.610;13.244;2024-03-07T08:50:54;22.02;;;7.90;;
41943;SDS011;27636;52.610;13.244;2024-03-07T08:55:59;21.27;;;8.05;;
41943;SDS011;27636;52.610;13.244;2024-03-07T09:01:06;18.23;;;8.25;;
41943;SDS011;27636;52.610;13.244;2024-03-07T09:11:16;20.48;;;7.43;;
41943;SDS011;27636;52.610;13.244;2024-03-07T09:16:22;16.58;;;6.68;;
41943;SDS011;27636;52.610;13.244;2024-03-07T09:21:26;19.80;;;7.90;;
41943;SDS011;27636;52.610;13.244;2024-03-07T09:26:30;18.17;;;8.05;;
41943;SDS011;27636;52.610;13.244;2024-03-07T09:31:36;26.75;;;8.63;;
41943;SDS011;27636;52.610;13.244;2024-03-07T09:36:43;15.15;;;6.45;;
41943;SDS011;27636;52.610;13.244;2024-03-07T09:41:47;19.23;;;6.55;;
41943;SDS011;27636;52.610;13.244;2024-03-07T09:46:56;15.77;;;6.30;;
41943;SDS011;27636;52.610;13.244;2024-03-07T09:52:03;15.82;;;6.57;;
41943;SDS011;27636;52.610;13.244;2024-03-07T09:57:14;15.10;;;6.28;;
41943;SDS011;27636;52.610;13.244;2024-03-07T10:02:21;16.45;;;6.80;;
41943;SDS011;27636;52.610;13.244;2024-03-07T10:07:27;16.33;;;5.80;;
41943;SDS011;27636;52.610;13.244;2024-03-07T10:12:32;11.40;;;5.78;;
41943;SDS011;27636;52.610;13.244;2024-03-07T10:17:39;11.38;;;5.28;;
41943;SDS011;27636;52.610;13.244;2024-03-07T10:22:50;17.98;;;6.53;;
41943;SDS011;27636;52.610;13.244;2024-03-07T10:27:53;16.70;;;6.82;;
41943;SDS011;27636;52.610;13.244;2024-03-07T10:32:59;16.37;;;6.90;;
41943;SDS011;27636;52.610;13.244;2024-03-07T10:38:05;18.10;;;7.65;;
41943;SDS011;27636;52.610;13.244;2024-03-07T10:43:11;13.50;;;5.90;;
41943;SDS011;27636;52.610;13.244;2024-03-07T10:48:20;12.90;;;5.43;;
41943;SDS011;27636;52.610;13.244;2024-03-07T10:53:29;15.20;;;6.60;;
41943;SDS011;27636;52.610;13.244;2024-03-07T10:58:37;11.80;;;4.65;;
41943;SDS011;27636;52.610;13.244;2024-03-07T11:03:52;12.48;;;5.90;;
41943;SDS011;27636;52.610;13.244;2024-03-07T11:09:00;16.40;;;6.00;;
41943;SDS011;27636;52.610;13.244;2024-03-07T11:14:07;16.42;;;5.15;;
41943;SDS011;27636;52.610;13.244;2024-03-07T11:19:19;18.20;;;6.50;;
41943;SDS011;27636;52.610;13.244;2024-03-07T11:24:30;12.43;;;5.57;;
41943;SDS011;27636;52.610;13.244;2024-03-07T11:29:38;12.07;;;5.85;;
41943;SDS011;27636;52.610;13.244;2024-03-07T11:34:49;13.50;;;6.38;;
41943;SDS011;27636;52.610;13.244;2024-03-07T11:39:54;16.55;;;5.72;;
41943;SDS011;27636;52.610;13.244;2024-03-07T11:45:02;12.18;;;5.32;;
41943;SDS011;27636;52.610;13.244;2024-03-07T11:50:10;16.27;;;5.93;;
41943;SDS011;27636;52.610;13.244;2024-03-07T11:55:16;15.35;;;5.38;;
41943;SDS011;27636;52.610;13.244;2024-03-07T12:00:22;17.70;;;6.85;;
41943;SDS011;27636;52.610;13.244;2024-03-07T12:05:32;10.77;;;5.13;;
41943;SDS011;27636;52.610;13.244;2024-03-07T12:10:37;12.93;;;5.90;;
41943;SDS011;27636;52.610;13.244;2024-03-07T12:15:51;12.38;;;4.80;;
41943;SDS011;27636;52.610;13.244;2024-03-07T12:21:00;15.00;;;6.47;;
41943;SDS011;27636;52.610;13.244;2024-03-07T12:26:13;14.55;;;6.18;;
41943;SDS011;27636;52.610;13.244;2024-03-07T12:31:28;13.05;;;5.82;;
41943;SDS011;27636;52.610;13.244;2024-03-07T12:36:36;17.52;;;7.05;;
41943;SDS011;27636;52.610;13.244;2024-03-07T12:41:48;15.50;;;7.63;;
41943;SDS011;27636;52.610;13.244;2024-03-07T12:52:01;15.57;;;6.15;;
41943;SDS011;27636;52.610;13.244;2024-03-07T12:57:07;15.05;;;7.25;;
41943;SDS011;27636;52.610;13.244;2024-03-07T13:02:12;14.82;;;5.53;;
41943;SDS011;27636;52.610;13.244;2024-03-07T13:07:18;21.60;;;5.97;;
41943;SDS011;27636;52.610;13.244;2024-03-07T13:17:26;16.40;;;5.85;;
41943;SDS011;27636;52.610;13.244;2024-03-07T13:27:36;15.45;;;7.07;;
41943;SDS011;27636;52.610;13.244;2024-03-07T13:32:41;15.27;;;6.55;;
41943;SDS011;27636;52.610;13.244;2024-03-07T13:37:50;15.13;;;6.22;;
41943;SDS011;27636;52.610;13.244;2024-03-07T13:42:58;16.67;;;7.97;;
41943;SDS011;27636;52.610;13.244;2024-03-07T13:53:11;13.70;;;5.80;;
41943;SDS011;27636;52.610;13.244;2024-03-07T13:58:16;18.23;;;6.90;;
41943;SDS011;27636;52.610;13.244;2024-03-07T14:09:33;13.27;;;5.70;;
41943;SDS011;27636;52.610;13.244;2024-03-07T14:14:57;16.60;;;6.68;;
41943;SDS011;27636;52.610;13.244;2024-03-07T14:26:10;18.98;;;6.35;;
41943;SDS011;27636;52.610;13.244;2024-03-07T14:31:37;17.42;;;6.32;;
41943;SDS011;27636;52.610;13.244;2024-03-07T14:36:43;14.90;;;5.82;;
41943;SDS011;27636;52.610;13.244;2024-03-07T14:41:51;11.23;;;5.38;;
41943;SDS011;27636;52.610;13.244;2024-03-07T14:46:59;17.15;;;6.18;;
41943;SDS011;27636;52.610;13.244;2024-03-07T14:52:10;15.13;;;7.68;;
41943;SDS011;27636;52.610;13.244;2024-03-07T14:57:16;14.82;;;6.35;;
41943;SDS011;27636;52.610;13.244;2024-03-07T15:02:25;16.23;;;6.53;;
41943;SDS011;27636;52.610;13.244;2024-03-07T15:07:30;17.98;;;6.70;;
41943;SDS011;27636;52.610;13.244;2024-03-07T15:12:35;22.38;;;6.95;;
41943;SDS011;27636;52.610;13.244;2024-03-07T15:17:39;16.90;;;6.88;;
41943;SDS011;27636;52.610;13.244;2024-03-07T15:22:44;16.73;;;7.00;;
41943;SDS011;27636;52.610;13.244;2024-03-07T15:27:51;21.23;;;8.43;;
41943;SDS011;27636;52.610;13.244;2024-03-07T15:32:56;11.65;;;5.38;;
41943;SDS011;27636;52.610;13.244;2024-03-07T15:38:00;12.03;;;5.97;;
41943;SDS011;27636;52.610;13.244;2024-03-07T15:43:06;13.70;;;5.83;;
41943;SDS011;27636;52.610;13.244;2024-03-07T15:54:35;11.23;;;5.05;;
41943;SDS011;27636;52.610;13.244;2024-03-07T16:00:03;16.45;;;6.32;;
41943;SDS011;27636;52.610;13.244;2024-03-07T16:05:15;17.38;;;6.93;;
41943;SDS011;27636;52.610;13.244;2024-03-07T16:10:55;13.32;;;5.80;;
41943;SDS011;27636;52.610;13.244;2024-03-07T16:16:09;15.38;;;6.25;;
41943;SDS011;27636;52.610;13.244;2024-03-07T16:21:21;14.13;;;6.30;;
41943;SDS011;27636;52.610;13.244;2024-03-07T16:26:32;14.60;;;6.00;;
41943;SDS011;27636;52.610;13.244;2024-03-07T16:31:39;14.13;;;5.85;;
41943;SDS011;27636;52.610;13.244;2024-03-07T16:36:47;11.73;;;5.20;;
41943;SDS011;27636;52.610;13.244;2024-03-07T16:42:00;14.07;;;6.88;;
41943;SDS011;27636;52.610;13.244;2024-03-07T16:47:11;14.80;;;7.28;;
41943;SDS011;27636;52.610;13.244;2024-03-07T16:52:24;16.20;;;7.40;;
41943;SDS011;27636;52.610;13.244;2024-03-07T16:57:28;14.00;;;6.20;;
41943;SDS011;27636;52.610;13.244;2024-03-07T17:02:35;15.32;;;6.18;;
41943;SDS011;27636;52.610;13.244;2024-03-07T17:07:43;11.68;;;4.97;;
41943;SDS011;27636;52.610;13.244;2024-03-07T17:12:55;16.43;;;6.60;;
41943;SDS011;27636;52.610;13.244;2024-03-07T17:18:05;13.27;;;5.47;;
41943;SDS011;27636;52.610;13.244;2024-03-07T17:23:21;12.45;;;5.65;;
41943;SDS011;27636;52.610;13.244;2024-03-07T17:28:38;16.38;;;6.82;;
41943;SDS011;27636;52.610;13.244;2024-03-07T17:34:00;12.55;;;5.35;;
41943;SDS011;27636;52.610;13.244;2024-03-07T17:39:10;14.05;;;5.28;;
41943;SDS011;27636;52.610;13.244;2024-03-07T17:44:23;22.30;;;7.65;;
41943;SDS011;27636;52.610;13.244;2024-03-07T17:49:35;14.60;;;6.13;;
41943;SDS011;27636;52.610;13.244;2024-03-07T18:00:04;16.85;;;5.95;;
41943;SDS011;27636;52.610;13.244;2024-03-07T18:05:32;14.25;;;6.43;;
41943;SDS011;27636;52.610;13.244;2024-03-07T18:10:47;13.70;;;6.57;;
41943;SDS011;27636;52.610;13.244;2024-03-07T18:15:51;10.57;;;5.93;;
41943;SDS011;27636;52.610;13.244;2024-03-07T18:21:05;12.80;;;7.15;;
41943;SDS011;27636;52.610;13.244;2024-03-07T18:26:09;21.25;;;7.20;;
41943;SDS011;27636;52.610;13.244;2024-03-07T18:31:37;16.05;;;5.00;;
41943;SDS011;27636;52.610;13.244;2024-03-07T18:36:48;14.95;;;5.45;;
41943;SDS011;27636;52.610;13.244;2024-03-07T18:41:54;15.77;;;5.95;;
41943;SDS011;27636;52.610;13.244;2024-03-07T18:47:03;13.95;;;6.70;;
41943;SDS011;27636;52.610;13.244;2024-03-07T18:52:13;9.38;;;5.07;;
41943;SDS011;27636;52.610;13.244;2024-03-07T18:57:53;17.88;;;4.93;;
41943;SDS011;27636;52.610;13.244;2024-03-07T19:03:14;15.02;;;8.50;;
41943;SDS011;27636;52.610;13.244;2024-03-07T19:08:27;15.95;;;7.20;;
41943;SDS011;27636;52.610;13.244;2024-03-07T19:13:48;16.52;;;7.25;;
41943;SDS011;27636;52.610;13.244;2024-03-07T19:18:52;20.07;;;9.33;;
41943;SDS011;27636;52.610;13.244;2024-03-07T19:24:22;15.52;;;6.28;;
41943;SDS011;27636;52.610;13.244;2024-03-07T19:29:45;13.70;;;6.28;;
41943;SDS011;27636;52.610;13.244;2024-03-07T19:35:00;15.82;;;6.97;;
41943;SDS011;27636;52.610;13.244;2024-03-07T19:40:22;20.10;;;6.00;;
41943;SDS011;27636;52.610;13.244;2024-03-07T19:45:32;20.35;;;7.85;;
41943;SDS011;27636;52.610;13.244;2024-03-07T19:50:38;15.55;;;6.47;;
41943;SDS011;27636;52.610;13.244;2024-03-07T19:55:53;17.05;;;7.90;;
41943;SDS011;27636;52.610;13.244;2024-03-07T20:01:33;16.83;;;6.53;;
41943;SDS011;27636;52.610;13.244;2024-03-07T20:06:58;14.75;;;5.90;;
41943;SDS011;27636;52.610;13.244;2024-03-07T20:12:06;12.45;;;5.80;;
41943;SDS011;27636;52.610;13.244;2024-03-07T20:17:42;13.10;;;5.05;;
41943;SDS011;27636;52.610;13.244;2024-03-07T20:22:57;8.40;;;3.92;;
41943;SDS011;27636;52.610;13.244;2024-03-07T20:28:12;40.83;;;5.35;;
41943;SDS011;27636;52.610;13.244;2024-03-07T20:33:33;14.05;;;5.70;;
41943;SDS011;27636;52.610;13.244;2024-03-07T20:38:56;10.50;;;6.60;;
41943;SDS011;27636;52.610;13.244;2024-03-07T20:44:03;7.45;;;3.63;;
41943;SDS011;27636;52.610;13.244;2024-03-07T20:49:09;9.45;;;4.32;;
41943;SDS011;27636;52.610;13.244;2024-03-07T20:54:15;19.17;;;7.05;;
41943;SDS011;27636;52.610;13.244;2024-03-07T20:59:40;14.32;;;4.40;;
41943;SDS011;27636;52.610;13.244;2024-03-07T21:04:56;12.50;;;4.90;;
41943;SDS011;27636;52.610;13.244;2024-03-07T21:10:10;14.63;;;7.72;;
41943;SDS011;27636;52.610;13.244;2024-03-07T21:20:50;15.13;;;5.40;;
41943;SDS011;27636;52.610;13.244;2024-03-07T21:25:56;14.32;;;6.43;;
41943;SDS011;27636;52.610;13.244;2024-03-07T21:31:16;12.88;;;4.50;;
41943;SDS011;27636;52.610;13.244;2024-03-07T21:36:30;11.35;;;6.03;;
41943;SDS011;27636;52.610;13.244;2024-03-07T21:41:43;21.88;;;8.45;;
41943;SDS011;27636;52.610;13.244;2024-03-07T21:46:49;31.90;;;13.20;;
41943;SDS011;27636;52.610;13.244;2024-03-07T21:52:00;26.77;;;10.57;;
41943;SDS011;27636;52.610;13.244;2024-03-07T21:57:16;32.60;;;12.13;;
41943;SDS011;27636;52.610;13.244;2024-03-07T22:02:53;25.60;;;8.65;;
41943;SDS011;27636;52.610;13.244;2024-03-07T22:08:19;19.35;;;7.45;;
41943;SDS011;27636;52.610;13.244;2024-03-07T22:13:28;19.42;;;8.27;;
41943;SDS011;27636;52.610;13.244;2024-03-07T22:18:44;18.70;;;7.85;;
41943;SDS011;27636;52.610;13.244;2024-03-07T22:23:50;13.00;;;5.10;;
41943;SDS011;27636;52.610;13.244;2024-03-07T22:28:53;11.13;;;5.28;;
41943;SDS011;27636;52.610;13.244;2024-03-07T22:33:59;23.40;;;4.88;;
41943;SDS011;27636;52.610;13.244;2024-03-07T22:39:10;12.40;;;5.45;;
41943;SDS011;27636;52.610;13.244;2024-03-07T22:44:19;7.80;;;3.80;;
41943;SDS011;27636;52.610;13.244;2024-03-07T22:49:31;11.65;;;5.97;;
41943;SDS011;27636;52.610;13.244;2024-03-07T22:54:52;10.15;;;4.72;;
41943;SDS011;27636;52.610;13.244;2024-03-07T23:00:31;6.35;;;3.75;;
41943;SDS011;27636;52.610;13.244;2024-03-07T23:05:39;10.55;;;6.25;;
41943;SDS011;27636;52.610;13.244;2024-03-07T23:10:58;9.35;;;5.70;;
41943;SDS011;27636;52.610;13.244;2024-03-07T23:16:03;14.32;;;6.03;;
41943;SDS011;27636;52.610;13.244;2024-03-07T23:21:37;9.48;;;6.47;;
41943;SDS011;27636;52.610;13.244;2024-03-07T23:26:47;11.50;;;6.25;;
41943;SDS011;27636;52.610;13.244;2024-03-07T23:32:02;10.13;;;4.22;;
41943;SDS011;27636;52.610;13.244;2024-03-07T23:37:17;18.10;;;7.00;;
41943;SDS011;27636;52.610;13.244;2024-03-07T23:42:25;7.07;;;4.18;;
41943;SDS011;27636;52.610;13.244;2024-03-07T23:47:38;8.10;;;4.78;;
41943;SDS011;27636;52.610;13.244;2024-03-07T23:53:05;8.80;;;4.38;;
41943;SDS011;27636;52.610;13.244;2024-03-07T23:58:30;17.35;;;6.35;;
